createdAt,value
2022-10-09T00:01:24.104Z,14.59
2022-10-09T00:03:54.324Z,14.57
2022-10-09T00:06:29.460Z,14.56
2022-10-09T00:08:59.107Z,14.59
2022-10-09T00:11:27.616Z,14.57
2022-10-09T00:13:55.486Z,14.55
2022-10-09T00:16:26.832Z,14.62
2022-10-09T00:18:57.245Z,14.65
2022-10-09T00:21:25.758Z,14.68
2022-10-09T00:23:55.928Z,14.63
2022-10-09T00:26:23.702Z,14.58
2022-10-09T00:28:51.267Z,14.61
2022-10-09T00:31:19.395Z,14.59
2022-10-09T00:33:46.590Z,14.54
2022-10-09T00:36:17.947Z,14.50
2022-10-09T00:38:44.998Z,14.47
2022-10-09T00:41:17.716Z,14.39
2022-10-09T00:43:49.554Z,14.35
2022-10-09T00:46:42.288Z,14.32
2022-10-09T00:49:25.668Z,14.33
2022-10-09T00:51:54.502Z,14.26
2022-10-09T00:54:29.144Z,14.23
2022-10-09T00:56:56.453Z,14.17
2022-10-09T00:59:25.095Z,14.08
2022-10-09T01:01:52.095Z,14.04
2022-10-09T01:04:19.462Z,13.98
2022-10-09T01:06:55.572Z,13.96
2022-10-09T01:09:52.759Z,13.92
2022-10-09T01:12:27.896Z,13.88
2022-10-09T01:14:57.961Z,13.90
2022-10-09T01:17:25.061Z,13.89
2022-10-09T01:20:29.002Z,13.85
2022-10-09T01:23:33.713Z,13.80
2022-10-09T01:26:34.444Z,13.74
2022-10-09T01:29:13.317Z,13.72
2022-10-09T01:31:47.376Z,13.74
2022-10-09T01:34:16.485Z,13.67
2022-10-09T01:36:45.097Z,13.60
2022-10-09T01:39:17.720Z,13.52
2022-10-09T01:41:48.137Z,13.49
2022-10-09T01:44:23.961Z,13.44
2022-10-09T01:46:53.857Z,13.39
2022-10-09T01:49:40.526Z,13.33
2022-10-09T01:52:52.428Z,13.30
2022-10-09T01:55:37.010Z,13.26
2022-10-09T01:58:28.596Z,13.24
2022-10-09T02:01:05.162Z,13.20
2022-10-09T02:03:35.445Z,13.14
2022-10-09T02:06:06.128Z,13.07
2022-10-09T02:08:39.192Z,13.03
2022-10-09T02:11:06.762Z,12.99
2022-10-09T02:13:35.916Z,12.96
2022-10-09T02:16:05.738Z,12.91
2022-10-09T02:18:47.587Z,12.86
2022-10-09T02:21:22.007Z,12.77
2022-10-09T02:23:58.952Z,12.67
2022-10-09T02:26:27.076Z,12.56
2022-10-09T02:28:54.580Z,12.51
2022-10-09T02:31:28.298Z,12.46
2022-10-09T02:34:04.392Z,12.41
2022-10-09T02:36:32.329Z,12.29
2022-10-09T02:39:00.116Z,12.24
2022-10-09T02:41:27.785Z,12.12
2022-10-09T02:43:54.966Z,12.08
2022-10-09T02:46:22.398Z,12.07
2022-10-09T02:48:49.416Z,12.08
2022-10-09T02:51:16.577Z,12.03
2022-10-09T02:53:44.116Z,12.02
2022-10-09T02:56:13.561Z,11.97
2022-10-09T02:58:40.469Z,11.92
2022-10-09T03:01:10.381Z,11.84
2022-10-09T03:03:37.278Z,11.77
2022-10-09T03:06:11.990Z,11.71
2022-10-09T03:08:41.520Z,11.71
2022-10-09T03:11:11.557Z,11.66
2022-10-09T03:13:39.868Z,11.62
2022-10-09T03:16:09.325Z,11.60
2022-10-09T03:18:36.839Z,11.52
2022-10-09T03:21:08.748Z,11.48
2022-10-09T03:23:38.497Z,11.35
2022-10-09T03:26:10.191Z,11.25
2022-10-09T03:28:42.483Z,11.17
2022-10-09T03:31:22.357Z,11.12
2022-10-09T03:33:56.935Z,11.02
2022-10-09T03:36:24.190Z,10.96
2022-10-09T03:38:51.188Z,10.92
2022-10-09T03:41:18.196Z,10.85
2022-10-09T03:43:45.264Z,10.78
2022-10-09T03:46:12.431Z,10.69
2022-10-09T03:48:39.357Z,10.62
2022-10-09T03:51:06.516Z,10.61
2022-10-09T03:53:33.977Z,10.56
2022-10-09T03:56:03.148Z,10.52
2022-10-09T03:58:30.237Z,10.53
2022-10-09T04:00:57.349Z,10.53
2022-10-09T04:03:24.576Z,10.47
2022-10-09T04:05:51.685Z,10.47
2022-10-09T04:08:18.564Z,10.44
2022-10-09T04:10:45.459Z,10.39
2022-10-09T04:13:12.522Z,10.37
2022-10-09T04:15:41.720Z,10.32
2022-10-09T04:18:08.868Z,10.30
2022-10-09T04:20:36.194Z,10.26
2022-10-09T04:23:03.101Z,10.21
2022-10-09T04:25:29.989Z,10.16
2022-10-09T04:28:00.096Z,10.11
2022-10-09T04:30:27.178Z,10.07
2022-10-09T04:32:53.988Z,10.00
2022-10-09T04:35:21.030Z,9.98
2022-10-09T04:37:47.991Z,9.96
2022-10-09T04:40:14.884Z,9.94
2022-10-09T04:42:41.954Z,9.90
2022-10-09T04:45:11.807Z,9.89
2022-10-09T04:47:38.677Z,9.85
2022-10-09T04:50:06.844Z,9.80
2022-10-09T04:52:39.424Z,9.73
2022-10-09T04:55:09.253Z,9.72
2022-10-09T04:57:36.516Z,9.68
2022-10-09T05:00:06.457Z,9.67
2022-10-09T05:02:35.727Z,9.72
2022-10-09T05:05:02.902Z,9.66
2022-10-09T05:07:29.863Z,9.66
2022-10-09T05:09:57.863Z,9.68
2022-10-09T05:12:27.133Z,9.68
2022-10-09T05:14:54.394Z,9.66
2022-10-09T05:17:23.455Z,9.66
2022-10-09T05:19:50.870Z,9.64
2022-10-09T05:22:17.782Z,9.65
2022-10-09T05:24:44.650Z,9.63
2022-10-09T05:27:11.886Z,9.65
2022-10-09T05:29:38.816Z,9.67
2022-10-09T05:32:05.857Z,9.66
2022-10-09T05:34:34.506Z,9.75
2022-10-09T05:37:01.474Z,10.07
2022-10-09T05:39:28.505Z,10.51
2022-10-09T05:41:58.530Z,10.90
2022-10-09T05:44:27.779Z,11.07
2022-10-09T05:46:55.420Z,11.35
2022-10-09T05:49:22.799Z,11.80
2022-10-09T05:51:50.091Z,12.45
2022-10-09T05:54:17.980Z,12.57
2022-10-09T05:56:45.291Z,11.85
2022-10-09T05:59:15.190Z,11.35
2022-10-09T06:01:48.841Z,11.08
2022-10-09T06:04:18.985Z,10.96
2022-10-09T06:06:48.513Z,11.01
2022-10-09T06:09:22.226Z,11.08
2022-10-09T06:11:51.094Z,11.38
2022-10-09T06:14:18.330Z,11.66
2022-10-09T06:16:48.541Z,12.12
2022-10-09T06:19:17.523Z,13.37
2022-10-09T06:21:45.413Z,14.29
2022-10-09T06:24:31.232Z,15.74
2022-10-09T06:26:58.549Z,17.00
2022-10-09T06:29:26.279Z,17.63
2022-10-09T06:31:53.281Z,18.37
2022-10-09T06:34:20.659Z,18.97
2022-10-09T06:36:49.964Z,19.34
2022-10-09T06:39:17.336Z,20.25
2022-10-09T06:41:46.929Z,20.00
2022-10-09T06:44:38.598Z,20.24
2022-10-09T06:47:05.480Z,20.60
2022-10-09T06:49:32.394Z,20.27
2022-10-09T06:51:59.533Z,20.09
2022-10-09T06:54:26.525Z,19.09
2022-10-09T06:56:54.553Z,20.64
2022-10-09T06:59:23.842Z,20.94
2022-10-09T07:01:53.954Z,21.63
2022-10-09T07:04:21.714Z,21.76
2022-10-09T07:06:48.955Z,21.13
2022-10-09T07:09:16.537Z,21.36
2022-10-09T07:11:46.446Z,21.50
2022-10-09T07:14:16.852Z,21.61
2022-10-09T07:16:46.587Z,20.86
2022-10-09T07:19:15.495Z,20.62
2022-10-09T07:21:44.925Z,21.39
2022-10-09T07:24:15.019Z,21.58
2022-10-09T07:26:44.663Z,20.83
2022-10-09T07:29:13.927Z,21.36
2022-10-09T07:31:44.193Z,21.36
2022-10-09T07:34:13.801Z,21.18
2022-10-09T07:36:40.686Z,20.40
2022-10-09T07:39:10.717Z,20.74
2022-10-09T07:41:37.854Z,21.74
2022-10-09T07:44:07.128Z,21.36
2022-10-09T07:46:36.302Z,21.58
2022-10-09T07:49:04.131Z,21.19
2022-10-09T07:51:32.289Z,20.76
2022-10-09T07:54:00.437Z,20.79
2022-10-09T07:56:31.085Z,20.95
2022-10-09T07:59:00.377Z,20.15
2022-10-09T08:01:29.547Z,20.20
2022-10-09T08:03:58.105Z,19.37
2022-10-09T08:06:27.766Z,19.41
2022-10-09T08:08:59.124Z,18.58
2022-10-09T08:11:28.904Z,18.11
2022-10-09T08:13:56.187Z,18.12
2022-10-09T08:16:24.644Z,17.68
2022-10-09T08:18:56.989Z,17.42
2022-10-09T08:21:24.282Z,17.29
2022-10-09T08:23:56.353Z,16.89
2022-10-09T08:26:25.390Z,16.94
2022-10-09T08:28:59.729Z,16.96
2022-10-09T08:31:28.364Z,16.65
2022-10-09T08:33:57.035Z,16.54
2022-10-09T08:36:25.106Z,16.42
2022-10-09T08:38:55.963Z,16.53
2022-10-09T08:41:38.051Z,16.67
2022-10-09T08:44:09.612Z,16.72
2022-10-09T08:46:54.432Z,16.65
2022-10-09T08:49:29.782Z,16.75
2022-10-09T08:52:05.258Z,16.88
2022-10-09T08:54:38.343Z,16.86
2022-10-09T08:57:14.485Z,16.55
2022-10-09T08:59:42.803Z,16.83
2022-10-09T09:02:32.650Z,16.98
2022-10-09T09:05:08.967Z,16.83
2022-10-09T09:07:59.361Z,17.25
2022-10-09T09:10:41.563Z,17.01
2022-10-09T09:13:48.785Z,16.77
2022-10-09T09:16:23.203Z,17.00
2022-10-09T09:19:14.106Z,17.17
2022-10-09T09:21:51.308Z,17.20
2022-10-09T09:24:30.592Z,17.19
2022-10-09T09:27:04.012Z,17.08
2022-10-09T09:29:38.142Z,16.79
2022-10-09T09:32:17.583Z,17.10
2022-10-09T09:34:47.468Z,17.47
2022-10-09T09:37:17.566Z,17.38
2022-10-09T09:42:34.505Z,17.00
2022-10-09T09:45:08.207Z,17.01
2022-10-09T09:47:51.876Z,16.83
2022-10-09T09:50:47.136Z,16.51
2022-10-09T09:53:29.854Z,16.03
2022-10-09T09:56:03.087Z,15.93
2022-10-09T09:58:38.598Z,15.86
2022-10-09T10:01:07.288Z,16.03
2022-10-09T10:03:36.232Z,16.50
2022-10-09T10:06:21.286Z,16.63
2022-10-09T10:08:58.767Z,16.75
2022-10-09T10:11:25.939Z,17.11
2022-10-09T10:13:53.193Z,17.06
2022-10-09T10:16:23.847Z,16.75
2022-10-09T10:18:51.282Z,16.66
2022-10-09T10:21:19.918Z,16.99
2022-10-09T10:23:59.501Z,16.79
2022-10-09T10:26:42.632Z,16.64
2022-10-09T10:29:19.765Z,16.49
2022-10-09T10:31:56.029Z,16.93
2022-10-09T10:34:35.498Z,17.10
2022-10-09T10:37:15.021Z,17.11
2022-10-09T10:39:53.160Z,17.14
2022-10-09T10:42:58.682Z,17.45
2022-10-09T10:45:38.913Z,17.32
2022-10-09T10:48:11.125Z,17.42
2022-10-09T10:50:46.857Z,17.38
2022-10-09T10:53:33.669Z,17.44
2022-10-09T10:56:11.067Z,17.35
2022-10-09T10:58:46.609Z,17.25
2022-10-09T11:01:26.679Z,17.06
2022-10-09T11:04:28.682Z,16.45
2022-10-09T11:07:37.111Z,16.54
2022-10-09T11:10:32.927Z,16.65
2022-10-09T11:13:22.865Z,16.58
2022-10-09T11:15:55.768Z,16.41
2022-10-09T11:18:51.499Z,16.67
2022-10-09T11:21:56.102Z,16.73
2022-10-09T11:24:24.277Z,16.85
2022-10-09T11:27:00.884Z,16.99
2022-10-09T11:29:48.139Z,17.04
2022-10-09T11:32:33.017Z,16.79
2022-10-09T11:35:14.782Z,16.78
2022-10-09T11:37:47.932Z,16.87
2022-10-09T11:40:26.958Z,16.86
2022-10-09T11:43:08.176Z,16.90
2022-10-09T11:45:58.655Z,16.91
2022-10-09T11:48:48.602Z,16.98
2022-10-09T11:51:52.949Z,17.05
2022-10-09T11:54:22.827Z,16.95
2022-10-09T11:56:59.361Z,16.98
2022-10-09T11:59:30.827Z,17.10
2022-10-09T12:02:02.957Z,17.23
2022-10-09T12:04:50.526Z,17.10
2022-10-09T12:07:27.869Z,17.13
2022-10-09T12:10:27.399Z,17.20
2022-10-09T12:13:07.057Z,17.14
2022-10-09T12:15:53.012Z,17.08
2022-10-09T12:18:46.080Z,16.93
2022-10-09T12:21:30.850Z,16.76
2022-10-09T12:23:58.409Z,16.84
2022-10-09T12:26:26.268Z,16.91
2022-10-09T12:29:01.196Z,16.97
2022-10-09T12:31:40.661Z,16.98
2022-10-09T12:34:29.547Z,17.00
2022-10-09T12:37:10.029Z,17.06
2022-10-09T12:39:39.210Z,17.09
2022-10-09T12:42:13.516Z,16.97
2022-10-09T12:44:40.700Z,16.97
2022-10-09T12:47:14.311Z,17.07
2022-10-09T12:49:43.645Z,17.18
2022-10-09T12:52:16.411Z,17.11
2022-10-09T12:54:44.917Z,17.10
2022-10-09T12:57:15.812Z,17.02
2022-10-09T12:59:49.732Z,16.99
2022-10-09T13:02:17.743Z,17.02
2022-10-09T13:05:00.140Z,16.97
2022-10-09T13:07:30.157Z,17.06
2022-10-09T13:10:04.223Z,17.04
2022-10-09T13:12:32.441Z,17.01
2022-10-09T13:15:02.424Z,16.99
2022-10-09T13:17:34.299Z,17.03
2022-10-09T13:20:25.777Z,17.27
2022-10-09T13:22:54.219Z,17.30
2022-10-09T13:25:21.596Z,17.39
2022-10-09T13:27:51.118Z,17.24
2022-10-09T13:30:18.508Z,17.35
2022-10-09T13:32:45.749Z,17.18
2022-10-09T13:35:12.656Z,17.30
2022-10-09T13:37:39.987Z,17.28
2022-10-09T13:40:14.919Z,17.11
2022-10-09T13:42:42.996Z,17.03
2022-10-09T13:45:10.922Z,17.05
2022-10-09T13:47:40.408Z,17.09
2022-10-09T13:50:07.840Z,16.98
2022-10-09T13:52:35.055Z,17.01
2022-10-09T13:55:02.251Z,17.00
2022-10-09T13:57:29.519Z,17.06
2022-10-09T13:59:56.702Z,17.03
2022-10-09T14:02:23.756Z,16.95
2022-10-09T14:04:50.720Z,16.85
2022-10-09T14:07:20.083Z,16.70
2022-10-09T14:09:47.076Z,16.50
2022-10-09T14:12:14.020Z,16.40
2022-10-09T14:14:41.139Z,16.27
2022-10-09T14:17:08.045Z,16.17
2022-10-09T14:19:35.195Z,16.03
2022-10-09T14:22:02.674Z,15.93
2022-10-09T14:24:32.321Z,15.85
2022-10-09T14:26:59.328Z,15.79
2022-10-09T14:29:26.568Z,15.70
2022-10-09T14:31:53.519Z,15.63
2022-10-09T14:34:20.531Z,15.59
2022-10-09T14:36:49.048Z,15.53
2022-10-09T14:39:16.392Z,15.50
2022-10-09T14:41:43.640Z,15.39
2022-10-09T14:44:11.121Z,15.37
2022-10-09T14:46:39.400Z,15.38
2022-10-09T14:49:08.299Z,15.30
2022-10-09T14:51:38.546Z,15.23
2022-10-09T14:54:07.429Z,15.22
2022-10-09T14:56:34.787Z,15.20
2022-10-09T14:59:02.127Z,15.25
2022-10-09T15:01:32.356Z,15.32
2022-10-09T15:04:06.037Z,15.30
2022-10-09T15:06:34.382Z,15.35
2022-10-09T15:09:05.378Z,15.40
2022-10-09T15:11:36.536Z,15.41
2022-10-09T15:14:06.757Z,15.40
2022-10-09T15:16:36.980Z,15.38
2022-10-09T15:19:05.783Z,15.40
2022-10-09T15:21:34.403Z,15.35
2022-10-09T15:24:02.778Z,15.30
2022-10-09T15:26:35.737Z,15.24
2022-10-09T15:29:05.148Z,15.15
2022-10-09T15:31:40.923Z,15.07
2022-10-09T15:34:17.090Z,15.03
2022-10-09T15:36:46.472Z,14.99
2022-10-09T15:39:14.125Z,14.94
2022-10-09T15:41:42.860Z,14.83
2022-10-09T15:44:16.736Z,14.76
2022-10-09T15:46:48.131Z,14.64
2022-10-09T15:49:18.107Z,14.48
2022-10-09T15:51:45.461Z,14.29
2022-10-09T15:54:14.404Z,14.10
2022-10-09T15:56:42.393Z,13.95
2022-10-09T15:59:18.910Z,13.75
2022-10-09T16:01:48.986Z,13.53
2022-10-09T16:04:18.399Z,13.37
2022-10-09T16:06:50.847Z,13.26
2022-10-09T16:09:17.971Z,13.11
2022-10-09T16:11:45.122Z,12.97
2022-10-09T16:14:12.385Z,12.80
2022-10-09T16:16:39.436Z,12.62
2022-10-09T16:19:06.949Z,12.41
2022-10-09T16:21:34.086Z,12.26
2022-10-09T16:24:01.174Z,12.14
2022-10-09T16:26:31.225Z,12.03
2022-10-09T16:29:00.600Z,11.89
2022-10-09T16:31:30.704Z,11.79
2022-10-09T16:33:58.482Z,11.67
2022-10-09T16:36:25.929Z,11.54
2022-10-09T16:38:55.051Z,11.38
2022-10-09T16:41:23.102Z,11.25
2022-10-09T16:43:53.098Z,11.15
2022-10-09T16:49:01.434Z,10.94
2022-10-09T16:51:31.473Z,10.88
2022-10-09T16:54:00.856Z,10.77
2022-10-09T16:56:32.931Z,10.73
2022-10-09T16:59:03.258Z,10.66
2022-10-09T17:01:32.280Z,10.58
2022-10-09T17:04:00.325Z,10.54
2022-10-09T17:06:28.097Z,10.46
2022-10-09T17:08:58.240Z,10.42
2022-10-09T17:11:28.482Z,10.36
2022-10-09T17:13:57.048Z,10.24
2022-10-09T17:16:29.406Z,10.15
2022-10-09T17:18:57.591Z,10.06
2022-10-09T17:21:30.975Z,10.09
2022-10-09T17:24:06.330Z,10.07
2022-10-09T17:26:37.370Z,9.93
2022-10-09T17:29:04.863Z,9.83
2022-10-09T17:31:34.780Z,9.82
2022-10-09T17:34:04.602Z,9.82
2022-10-09T17:36:40.094Z,9.72
2022-10-09T17:39:11.174Z,9.64
2022-10-09T17:41:38.666Z,9.56
2022-10-09T17:44:06.399Z,9.51
2022-10-09T17:46:34.288Z,9.48
2022-10-09T17:49:01.756Z,9.46
2022-10-09T17:51:35.441Z,9.50
2022-10-09T17:54:12.237Z,9.41
2022-10-09T17:56:41.147Z,9.38
2022-10-09T17:59:09.351Z,9.44
2022-10-09T18:01:37.577Z,9.43
2022-10-09T18:04:05.646Z,9.46
2022-10-09T18:06:34.893Z,9.38
2022-10-09T18:09:04.967Z,9.35
2022-10-09T18:11:32.846Z,9.34
2022-10-09T18:14:01.987Z,9.22
2022-10-09T18:16:35.904Z,9.09
2022-10-09T18:19:21.573Z,9.07
2022-10-09T18:21:50.016Z,8.96
2022-10-09T18:24:21.110Z,8.86
2022-10-09T18:26:48.766Z,8.85
2022-10-09T18:29:16.978Z,8.77
2022-10-09T18:31:45.322Z,8.72
2022-10-09T18:34:15.119Z,8.67
2022-10-09T18:36:42.716Z,8.71
2022-10-09T18:39:14.079Z,8.79
2022-10-09T18:41:45.411Z,8.87
2022-10-09T18:44:21.977Z,8.85
2022-10-09T18:46:54.528Z,8.70
2022-10-09T18:49:28.294Z,8.71
2022-10-09T18:51:58.120Z,8.61
2022-10-09T18:54:28.101Z,8.56
2022-10-09T18:56:57.268Z,8.58
2022-10-09T18:59:25.464Z,8.50
2022-10-09T19:01:53.046Z,8.51
2022-10-09T19:04:23.104Z,8.35
2022-10-09T19:06:53.172Z,8.38
2022-10-09T19:09:22.212Z,8.23
2022-10-09T19:11:50.028Z,8.06
2022-10-09T19:14:17.201Z,7.97
2022-10-09T19:16:44.546Z,7.97
2022-10-09T19:19:11.822Z,7.88
2022-10-09T19:21:43.933Z,7.80
2022-10-09T19:24:12.491Z,7.73
2022-10-09T19:26:42.722Z,7.69
2022-10-09T19:29:10.471Z,7.66
2022-10-09T19:31:37.945Z,7.58
2022-10-09T19:34:09.201Z,7.50
2022-10-09T19:36:37.294Z,7.45
2022-10-09T19:39:07.158Z,7.38
2022-10-09T19:41:34.352Z,7.35
2022-10-09T19:44:02.053Z,7.34
2022-10-09T19:46:29.780Z,7.29
2022-10-09T19:48:57.794Z,7.24
2022-10-09T19:51:27.143Z,7.19
2022-10-09T19:53:55.028Z,7.13
2022-10-09T19:56:26.211Z,7.08
2022-10-09T19:58:55.105Z,7.02
2022-10-09T20:01:28.601Z,6.97
2022-10-09T20:04:02.028Z,6.90
2022-10-09T20:06:29.260Z,6.82
2022-10-09T20:08:56.776Z,6.77
2022-10-09T20:11:26.433Z,6.71
2022-10-09T20:13:56.282Z,6.64
2022-10-09T20:16:24.836Z,6.64
2022-10-09T20:18:57.106Z,6.65
2022-10-09T20:21:24.998Z,6.66
2022-10-09T20:23:52.721Z,6.62
2022-10-09T20:26:23.748Z,6.56
2022-10-09T20:28:53.916Z,6.50
2022-10-09T20:31:24.000Z,6.44
2022-10-09T20:33:54.695Z,6.36
2022-10-09T20:36:27.865Z,6.32
2022-10-09T20:38:56.729Z,6.34
2022-10-09T20:41:24.808Z,6.29
2022-10-09T20:43:56.100Z,6.25
2022-10-09T20:46:24.573Z,6.21
2022-10-09T20:48:54.401Z,6.19
2022-10-09T20:51:22.735Z,6.20
2022-10-09T20:53:55.885Z,6.16
2022-10-09T20:56:24.953Z,6.15
2022-10-09T20:58:56.226Z,6.14
2022-10-09T21:01:24.131Z,6.12
2022-10-09T21:03:51.722Z,6.10
2022-10-09T21:06:21.292Z,6.10
2022-10-09T21:08:51.391Z,6.09
2022-10-09T21:11:19.433Z,6.09
2022-10-09T21:13:47.561Z,6.08
2022-10-09T21:16:18.196Z,6.05
2022-10-09T21:18:45.439Z,6.05
2022-10-09T21:21:15.457Z,6.02
2022-10-09T21:23:43.604Z,6.01
2022-10-09T21:26:14.990Z,5.99
2022-10-09T21:28:42.433Z,5.95
2022-10-09T21:31:10.621Z,5.95
2022-10-09T21:33:40.013Z,5.95
2022-10-09T21:37:01.778Z,5.96
2022-10-09T21:39:30.232Z,5.91
2022-10-09T21:41:59.636Z,5.89
2022-10-09T21:44:27.645Z,5.87
2022-10-09T21:46:54.884Z,5.84
2022-10-09T21:49:24.473Z,5.84
2022-10-09T21:51:51.998Z,5.83
2022-10-09T21:54:19.808Z,5.82
2022-10-09T21:56:46.867Z,5.81
2022-10-09T21:59:14.233Z,5.81
2022-10-09T22:01:41.321Z,5.80
2022-10-09T22:04:08.626Z,5.80
2022-10-09T22:06:35.601Z,5.76
2022-10-09T22:09:02.811Z,5.72
2022-10-09T22:11:30.217Z,5.70
2022-10-09T22:13:57.165Z,5.68
2022-10-09T22:16:26.257Z,5.65
2022-10-09T22:18:53.613Z,5.63
2022-10-09T22:21:20.636Z,5.62
2022-10-09T22:23:47.791Z,5.60
2022-10-09T22:26:19.039Z,5.62
2022-10-09T22:28:51.651Z,5.63
2022-10-09T22:31:21.338Z,5.65
2022-10-09T22:33:52.687Z,5.68
2022-10-09T22:36:21.946Z,5.68
2022-10-09T22:38:49.070Z,5.70
2022-10-09T22:41:19.214Z,5.70
2022-10-09T22:43:49.337Z,5.69
2022-10-09T22:46:19.870Z,5.71
2022-10-09T22:48:47.083Z,5.73
2022-10-09T22:51:16.424Z,5.75
2022-10-09T22:53:44.567Z,5.81
2022-10-09T22:56:23.184Z,5.88
2022-10-09T22:58:54.256Z,5.93
2022-10-09T23:01:37.506Z,5.99
2022-10-09T23:04:07.634Z,6.08
2022-10-09T23:06:35.003Z,6.16
2022-10-09T23:09:05.057Z,6.20
2022-10-09T23:11:32.142Z,6.26
2022-10-09T23:14:00.563Z,6.27
2022-10-09T23:16:29.326Z,6.33
2022-10-09T23:19:05.442Z,6.34
2022-10-09T23:21:35.198Z,6.36
2022-10-09T23:24:02.832Z,6.37
2022-10-09T23:26:32.368Z,6.45
2022-10-09T23:29:05.739Z,6.42
2022-10-09T23:31:36.194Z,6.35
2022-10-09T23:34:06.845Z,6.33
2022-10-09T23:36:33.775Z,6.23
2022-10-09T23:39:02.344Z,6.17
2022-10-09T23:41:29.407Z,6.20
2022-10-09T23:43:57.006Z,6.12
2022-10-09T23:46:29.385Z,6.19
2022-10-09T23:48:56.722Z,6.20
2022-10-09T23:51:25.212Z,6.20
2022-10-09T23:53:52.694Z,6.15
2022-10-09T23:56:23.192Z,6.17
2022-10-09T23:58:51.539Z,6.10
